sensor_id;sensor_type;location;lat;lon;timestamp;temperature;humidity
10788;DHT22;5446;50.826;4.380;2022-08-19T00:01:26;20.70;99.90
10788;DHT22;5446;50.826;4.380;2022-08-19T00:03:52;20.70;99.90
10788;DHT22;5446;50.826;4.380;2022-08-19T00:06:18;20.70;99.90
10788;DHT22;5446;50.826;4.380;2022-08-19T00:08:44;20.60;99.90
10788;DHT22;5446;50.826;4.380;2022-08-19T00:11:10;20.50;99.90
10788;DHT22;5446;50.826;4.380;2022-08-19T00:13:36;20.50;99.90
10788;DHT22;5446;50.826;4.380;2022-08-19T00:16:03;20.40;99.90
10788;DHT22;5446;50.826;4.380;2022-08-19T00:18:29;20.40;99.90
10788;DHT22;5446;50.826;4.380;2022-08-19T00:20:54;20.40;99.90
10788;DHT22;5446;50.826;4.380;2022-08-19T00:23:20;20.40;99.90
10788;DHT22;5446;50.826;4.380;2022-08-19T00:25:46;20.40;99.90
10788;DHT22;5446;50.826;4.380;2022-08-19T00:28:12;20.40;99.90
10788;DHT22;5446;50.826;4.380;2022-08-19T00:30:37;20.30;99.90
10788;DHT22;5446;50.826;4.380;2022-08-19T00:33:03;20.30;99.90
10788;DHT22;5446;50.826;4.380;2022-08-19T00:35:29;20.30;99.90
10788;DHT22;5446;50.826;4.380;2022-08-19T00:37:55;20.20;99.90
10788;DHT22;5446;50.826;4.380;2022-08-19T00:40:21;20.20;99.90
10788;DHT22;5446;50.826;4.380;2022-08-19T00:42:47;20.20;99.90
10788;DHT22;5446;50.826;4.380;2022-08-19T00:45:21;20.20;99.90
10788;DHT22;5446;50.826;4.380;2022-08-19T00:47:47;20.20;99.90
10788;DHT22;5446;50.826;4.380;2022-08-19T00:50:15;20.30;99.90
10788;DHT22;5446;50.826;4.380;2022-08-19T00:52:46;20.20;99.90
10788;DHT22;5446;50.826;4.380;2022-08-19T00:55:22;20.00;99.90
10788;DHT22;5446;50.826;4.380;2022-08-19T00:57:53;19.90;99.90
10788;DHT22;5446;50.826;4.380;2022-08-19T01:00:21;20.10;99.90
10788;DHT22;5446;50.826;4.380;2022-08-19T01:02:48;20.00;99.90
10788;DHT22;5446;50.826;4.380;2022-08-19T01:05:21;20.00;99.90
10788;DHT22;5446;50.826;4.380;2022-08-19T01:07:48;20.00;99.90
10788;DHT22;5446;50.826;4.380;2022-08-19T01:10:18;19.90;99.90
10788;DHT22;5446;50.826;4.380;2022-08-19T01:12:46;19.80;99.90
10788;DHT22;5446;50.826;4.380;2022-08-19T01:15:16;19.70;99.90
10788;DHT22;5446;50.826;4.380;2022-08-19T01:17:44;19.70;99.90
10788;DHT22;5446;50.826;4.380;2022-08-19T01:20:13;19.70;99.90
10788;DHT22;5446;50.826;4.380;2022-08-19T01:22:48;19.70;99.90
10788;DHT22;5446;50.826;4.380;2022-08-19T01:25:16;19.70;99.90
10788;DHT22;5446;50.826;4.380;2022-08-19T01:27:46;19.60;99.90
10788;DHT22;5446;50.826;4.380;2022-08-19T01:30:21;19.60;99.90
10788;DHT22;5446;50.826;4.380;2022-08-19T01:32:48;19.50;99.90
10788;DHT22;5446;50.826;4.380;2022-08-19T01:35:14;19.40;99.90
10788;DHT22;5446;50.826;4.380;2022-08-19T01:37:49;19.40;99.90
10788;DHT22;5446;50.826;4.380;2022-08-19T01:40:17;19.40;99.90
10788;DHT22;5446;50.826;4.380;2022-08-19T01:42:46;19.30;99.90
10788;DHT22;5446;50.826;4.380;2022-08-19T01:45:13;19.30;99.90
10788;DHT22;5446;50.826;4.380;2022-08-19T01:47:39;19.30;99.90
10788;DHT22;5446;50.826;4.380;2022-08-19T01:50:07;19.30;99.90
10788;DHT22;5446;50.826;4.380;2022-08-19T01:52:39;19.30;99.90
10788;DHT22;5446;50.826;4.380;2022-08-19T01:55:07;19.20;99.90
10788;DHT22;5446;50.826;4.380;2022-08-19T01:57:33;19.20;99.90
10788;DHT22;5446;50.826;4.380;2022-08-19T01:59:59;19.20;99.90
10788;DHT22;5446;50.826;4.380;2022-08-19T02:02:28;19.20;99.90
10788;DHT22;5446;50.826;4.380;2022-08-19T02:04:54;19.10;99.90
10788;DHT22;5446;50.826;4.380;2022-08-19T02:07:20;19.10;99.90
10788;DHT22;5446;50.826;4.380;2022-08-19T02:09:49;19.10;99.90
10788;DHT22;5446;50.826;4.380;2022-08-19T02:12:15;19.00;99.90
10788;DHT22;5446;50.826;4.380;2022-08-19T02:14:42;19.00;99.90
10788;DHT22;5446;50.826;4.380;2022-08-19T02:17:08;18.90;99.90
10788;DHT22;5446;50.826;4.380;2022-08-19T02:19:34;18.90;99.90
10788;DHT22;5446;50.826;4.380;2022-08-19T02:22:00;18.90;99.90
10788;DHT22;5446;50.826;4.380;2022-08-19T02:24:27;18.90;99.90
10788;DHT22;5446;50.826;4.380;2022-08-19T02:26:53;18.90;99.90
10788;DHT22;5446;50.826;4.380;2022-08-19T02:29:19;18.90;99.90
10788;DHT22;5446;50.826;4.380;2022-08-19T02:31:45;18.90;99.90
10788;DHT22;5446;50.826;4.380;2022-08-19T02:34:11;18.70;99.90
10788;DHT22;5446;50.826;4.380;2022-08-19T02:36:37;18.60;99.90
10788;DHT22;5446;50.826;4.380;2022-08-19T02:39:03;18.60;99.90
10788;DHT22;5446;50.826;4.380;2022-08-19T02:41:32;18.50;99.90
10788;DHT22;5446;50.826;4.380;2022-08-19T02:43:59;18.50;99.90
10788;DHT22;5446;50.826;4.380;2022-08-19T02:46:28;18.50;99.90
10788;DHT22;5446;50.826;4.380;2022-08-19T02:48:56;18.40;99.90
10788;DHT22;5446;50.826;4.380;2022-08-19T02:51:30;18.40;99.90
10788;DHT22;5446;50.826;4.380;2022-08-19T02:53:57;18.40;99.90
10788;DHT22;5446;50.826;4.380;2022-08-19T02:56:24;18.40;99.90
10788;DHT22;5446;50.826;4.380;2022-08-19T02:58:53;18.50;99.90
10788;DHT22;5446;50.826;4.380;2022-08-19T03:01:30;18.40;99.90
10788;DHT22;5446;50.826;4.380;2022-08-19T03:03:57;18.40;99.90
10788;DHT22;5446;50.826;4.380;2022-08-19T03:06:23;18.40;99.90
10788;DHT22;5446;50.826;4.380;2022-08-19T03:08:49;18.30;99.90
10788;DHT22;5446;50.826;4.380;2022-08-19T03:11:22;18.30;99.90
10788;DHT22;5446;50.826;4.380;2022-08-19T03:13:48;18.30;99.90
10788;DHT22;5446;50.826;4.380;2022-08-19T03:16:19;18.30;99.90
10788;DHT22;5446;50.826;4.380;2022-08-19T03:18:45;18.20;99.90
10788;DHT22;5446;50.826;4.380;2022-08-19T03:21:20;18.30;99.90
10788;DHT22;5446;50.826;4.380;2022-08-19T03:23:46;18.20;99.90
10788;DHT22;5446;50.826;4.380;2022-08-19T03:26:12;18.10;99.90
10788;DHT22;5446;50.826;4.380;2022-08-19T03:28:40;18.20;99.90
10788;DHT22;5446;50.826;4.380;2022-08-19T03:31:11;18.10;99.90
10788;DHT22;5446;50.826;4.380;2022-08-19T03:33:37;18.10;99.90
10788;DHT22;5446;50.826;4.380;2022-08-19T03:36:12;18.00;99.90
10788;DHT22;5446;50.826;4.380;2022-08-19T03:38:48;18.00;99.90
10788;DHT22;5446;50.826;4.380;2022-08-19T03:41:17;17.90;99.90
10788;DHT22;5446;50.826;4.380;2022-08-19T03:43:44;17.80;99.90
10788;DHT22;5446;50.826;4.380;2022-08-19T03:46:15;17.80;99.90
10788;DHT22;5446;50.826;4.380;2022-08-19T03:48:42;17.90;99.90
10788;DHT22;5446;50.826;4.380;2022-08-19T03:51:16;17.90;99.90
10788;DHT22;5446;50.826;4.380;2022-08-19T03:53:43;17.70;99.90
10788;DHT22;5446;50.826;4.380;2022-08-19T03:56:10;17.70;99.90
10788;DHT22;5446;50.826;4.380;2022-08-19T03:58:36;17.80;99.90
10788;DHT22;5446;50.826;4.380;2022-08-19T04:01:07;17.80;99.90
10788;DHT22;5446;50.826;4.380;2022-08-19T04:03:34;17.70;99.90
10788;DHT22;5446;50.826;4.380;2022-08-19T04:06:16;17.70;99.90
10788;DHT22;5446;50.826;4.380;2022-08-19T04:08:44;17.70;99.90
10788;DHT22;5446;50.826;4.380;2022-08-19T04:11:13;17.60;99.90
10788;DHT22;5446;50.826;4.380;2022-08-19T04:13:40;17.60;99.90
10788;DHT22;5446;50.826;4.380;2022-08-19T04:16:07;17.50;99.90
10788;DHT22;5446;50.826;4.380;2022-08-19T04:18:35;17.50;99.90
10788;DHT22;5446;50.826;4.380;2022-08-19T04:21:02;17.50;99.90
10788;DHT22;5446;50.826;4.380;2022-08-19T04:23:28;17.40;99.90
10788;DHT22;5446;50.826;4.380;2022-08-19T04:25:54;17.40;99.90
10788;DHT22;5446;50.826;4.380;2022-08-19T04:28:21;17.30;99.90
10788;DHT22;5446;50.826;4.380;2022-08-19T04:30:49;17.30;99.90
10788;DHT22;5446;50.826;4.380;2022-08-19T04:33:18;17.30;99.90
10788;DHT22;5446;50.826;4.380;2022-08-19T04:35:46;17.20;99.90
10788;DHT22;5446;50.826;4.380;2022-08-19T04:38:13;17.20;99.90
10788;DHT22;5446;50.826;4.380;2022-08-19T04:40:41;17.20;99.90
10788;DHT22;5446;50.826;4.380;2022-08-19T04:43:26;17.20;99.90
10788;DHT22;5446;50.826;4.380;2022-08-19T04:45:52;17.20;99.90
10788;DHT22;5446;50.826;4.380;2022-08-19T04:48:18;17.30;99.90
10788;DHT22;5446;50.826;4.380;2022-08-19T04:50:51;17.20;99.90
10788;DHT22;5446;50.826;4.380;2022-08-19T04:53:18;17.30;99.90
10788;DHT22;5446;50.826;4.380;2022-08-19T04:55:44;17.30;99.90
10788;DHT22;5446;50.826;4.380;2022-08-19T04:58:10;17.30;99.90
10788;DHT22;5446;50.826;4.380;2022-08-19T05:00:38;17.30;99.90
10788;DHT22;5446;50.826;4.380;2022-08-19T05:03:04;16.60;99.90
10788;DHT22;5446;50.826;4.380;2022-08-19T05:05:29;17.30;99.90
10788;DHT22;5446;50.826;4.380;2022-08-19T05:07:56;17.30;99.90
10788;DHT22;5446;50.826;4.380;2022-08-19T05:10:22;17.30;99.90
10788;DHT22;5446;50.826;4.380;2022-08-19T05:12:48;17.30;99.90
10788;DHT22;5446;50.826;4.380;2022-08-19T05:15:14;17.30;99.90
10788;DHT22;5446;50.826;4.380;2022-08-19T05:17:39;17.30;99.90
10788;DHT22;5446;50.826;4.380;2022-08-19T05:20:25;17.30;99.90
10788;DHT22;5446;50.826;4.380;2022-08-19T05:23:11;17.40;99.90
10788;DHT22;5446;50.826;4.380;2022-08-19T05:25:39;17.40;99.90
10788;DHT22;5446;50.826;4.380;2022-08-19T05:28:05;17.40;99.90
10788;DHT22;5446;50.826;4.380;2022-08-19T05:30:31;17.40;99.90
10788;DHT22;5446;50.826;4.380;2022-08-19T05:32:59;17.40;99.90
10788;DHT22;5446;50.826;4.380;2022-08-19T05:35:25;17.50;99.90
10788;DHT22;5446;50.826;4.380;2022-08-19T05:37:51;17.50;99.90
10788;DHT22;5446;50.826;4.380;2022-08-19T05:40:19;17.50;99.90
10788;DHT22;5446;50.826;4.380;2022-08-19T05:42:45;17.60;99.90
10788;DHT22;5446;50.826;4.380;2022-08-19T05:45:11;17.60;99.90
10788;DHT22;5446;50.826;4.380;2022-08-19T05:47:37;17.70;99.90
10788;DHT22;5446;50.826;4.380;2022-08-19T05:50:03;17.80;99.90
10788;DHT22;5446;50.826;4.380;2022-08-19T05:52:29;17.90;99.90
10788;DHT22;5446;50.826;4.380;2022-08-19T05:54:55;18.00;99.90
10788;DHT22;5446;50.826;4.380;2022-08-19T05:57:21;18.10;99.90
10788;DHT22;5446;50.826;4.380;2022-08-19T05:59:47;18.20;99.90
10788;DHT22;5446;50.826;4.380;2022-08-19T06:02:13;18.20;99.90
10788;DHT22;5446;50.826;4.380;2022-08-19T06:04:39;18.30;99.90
10788;DHT22;5446;50.826;4.380;2022-08-19T06:07:08;18.30;99.90
10788;DHT22;5446;50.826;4.380;2022-08-19T06:09:34;18.40;99.90
10788;DHT22;5446;50.826;4.380;2022-08-19T06:12:00;18.40;99.90
10788;DHT22;5446;50.826;4.380;2022-08-19T06:14:33;18.40;99.90
10788;DHT22;5446;50.826;4.380;2022-08-19T06:17:00;18.40;99.90
10788;DHT22;5446;50.826;4.380;2022-08-19T06:19:28;18.50;99.90
10788;DHT22;5446;50.826;4.380;2022-08-19T06:21:58;18.60;99.90
10788;DHT22;5446;50.826;4.380;2022-08-19T06:24:26;18.70;99.90
10788;DHT22;5446;50.826;4.380;2022-08-19T06:26:54;18.80;99.90
10788;DHT22;5446;50.826;4.380;2022-08-19T06:29:23;18.90;99.90
10788;DHT22;5446;50.826;4.380;2022-08-19T06:31:52;19.00;99.90
10788;DHT22;5446;50.826;4.380;2022-08-19T06:34:19;18.90;99.90
10788;DHT22;5446;50.826;4.380;2022-08-19T06:36:48;19.00;99.90
10788;DHT22;5446;50.826;4.380;2022-08-19T06:39:22;19.00;99.90
10788;DHT22;5446;50.826;4.380;2022-08-19T06:41:51;19.00;99.90
10788;DHT22;5446;50.826;4.380;2022-08-19T06:44:18;19.10;99.90
10788;DHT22;5446;50.826;4.380;2022-08-19T06:46:45;19.20;99.90
10788;DHT22;5446;50.826;4.380;2022-08-19T06:49:11;19.30;99.90
10788;DHT22;5446;50.826;4.380;2022-08-19T06:51:44;19.30;99.90
10788;DHT22;5446;50.826;4.380;2022-08-19T06:54:10;19.40;99.90
10788;DHT22;5446;50.826;4.380;2022-08-19T06:56:36;19.40;99.90
10788;DHT22;5446;50.826;4.380;2022-08-19T06:59:30;19.50;99.90
10788;DHT22;5446;50.826;4.380;2022-08-19T07:02:00;19.50;99.90
10788;DHT22;5446;50.826;4.380;2022-08-19T07:04:29;19.60;99.90
10788;DHT22;5446;50.826;4.380;2022-08-19T07:07:05;19.60;99.90
10788;DHT22;5446;50.826;4.380;2022-08-19T07:09:33;19.60;99.90
10788;DHT22;5446;50.826;4.380;2022-08-19T07:11:58;19.60;99.90
10788;DHT22;5446;50.826;4.380;2022-08-19T07:14:26;19.60;99.90
10788;DHT22;5446;50.826;4.380;2022-08-19T07:16:54;19.70;99.90
10788;DHT22;5446;50.826;4.380;2022-08-19T07:19:21;19.60;99.90
10788;DHT22;5446;50.826;4.380;2022-08-19T07:21:49;19.60;99.90
10788;DHT22;5446;50.826;4.380;2022-08-19T07:24:16;19.70;99.90
10788;DHT22;5446;50.826;4.380;2022-08-19T07:26:43;19.90;99.90
10788;DHT22;5446;50.826;4.380;2022-08-19T07:29:10;20.00;99.90
10788;DHT22;5446;50.826;4.380;2022-08-19T07:31:37;20.00;99.90
10788;DHT22;5446;50.826;4.380;2022-08-19T07:34:04;20.10;99.90
10788;DHT22;5446;50.826;4.380;2022-08-19T07:36:35;20.10;99.90
10788;DHT22;5446;50.826;4.380;2022-08-19T07:39:10;20.00;99.90
10788;DHT22;5446;50.826;4.380;2022-08-19T07:41:36;20.20;99.90
10788;DHT22;5446;50.826;4.380;2022-08-19T07:44:04;20.20;99.90
10788;DHT22;5446;50.826;4.380;2022-08-19T07:46:31;20.20;99.90
10788;DHT22;5446;50.826;4.380;2022-08-19T07:48:57;20.30;99.90
10788;DHT22;5446;50.826;4.380;2022-08-19T07:51:23;20.50;99.90
10788;DHT22;5446;50.826;4.380;2022-08-19T07:53:49;20.50;99.90
10788;DHT22;5446;50.826;4.380;2022-08-19T07:56:18;20.70;99.90
10788;DHT22;5446;50.826;4.380;2022-08-19T07:58:45;20.60;99.90
10788;DHT22;5446;50.826;4.380;2022-08-19T08:01:14;20.60;99.90
10788;DHT22;5446;50.826;4.380;2022-08-19T08:03:41;20.70;99.90
10788;DHT22;5446;50.826;4.380;2022-08-19T08:06:26;20.80;99.90
10788;DHT22;5446;50.826;4.380;2022-08-19T08:09:11;20.90;99.90
10788;DHT22;5446;50.826;4.380;2022-08-19T08:11:43;21.00;99.90
10788;DHT22;5446;50.826;4.380;2022-08-19T08:14:22;21.10;99.90
10788;DHT22;5446;50.826;4.380;2022-08-19T08:16:49;21.30;99.90
10788;DHT22;5446;50.826;4.380;2022-08-19T08:19:18;21.40;99.90
10788;DHT22;5446;50.826;4.380;2022-08-19T08:21:44;21.40;99.90
10788;DHT22;5446;50.826;4.380;2022-08-19T08:24:10;21.60;99.90
10788;DHT22;5446;50.826;4.380;2022-08-19T08:26:36;21.70;99.90
10788;DHT22;5446;50.826;4.380;2022-08-19T08:29:02;21.60;99.90
10788;DHT22;5446;50.826;4.380;2022-08-19T08:31:28;21.50;99.90
10788;DHT22;5446;50.826;4.380;2022-08-19T08:33:54;21.30;99.90
10788;DHT22;5446;50.826;4.380;2022-08-19T08:36:20;21.30;99.90
10788;DHT22;5446;50.826;4.380;2022-08-19T08:38:46;21.30;99.90
10788;DHT22;5446;50.826;4.380;2022-08-19T08:41:33;21.40;99.90
10788;DHT22;5446;50.826;4.380;2022-08-19T08:44:01;21.40;99.90
10788;DHT22;5446;50.826;4.380;2022-08-19T08:46:47;21.40;99.90
10788;DHT22;5446;50.826;4.380;2022-08-19T08:52:11;21.50;99.90
10788;DHT22;5446;50.826;4.380;2022-08-19T08:54:45;21.50;99.90
10788;DHT22;5446;50.826;4.380;2022-08-19T08:57:15;21.50;99.90
10788;DHT22;5446;50.826;4.380;2022-08-19T08:59:45;21.50;99.90
10788;DHT22;5446;50.826;4.380;2022-08-19T09:02:16;21.50;99.90
10788;DHT22;5446;50.826;4.380;2022-08-19T09:04:42;21.50;99.90
10788;DHT22;5446;50.826;4.380;2022-08-19T09:07:50;21.50;99.90
10788;DHT22;5446;50.826;4.380;2022-08-19T09:13:00;21.40;99.90
10788;DHT22;5446;50.826;4.380;2022-08-19T09:15:44;21.40;99.90
10788;DHT22;5446;50.826;4.380;2022-08-19T09:18:13;21.50;99.90
10788;DHT22;5446;50.826;4.380;2022-08-19T09:20:39;21.60;99.90
10788;DHT22;5446;50.826;4.380;2022-08-19T09:23:05;21.80;99.90
10788;DHT22;5446;50.826;4.380;2022-08-19T09:25:30;21.90;99.90
10788;DHT22;5446;50.826;4.380;2022-08-19T09:27:57;21.90;99.90
10788;DHT22;5446;50.826;4.380;2022-08-19T09:30:34;21.80;99.90
10788;DHT22;5446;50.826;4.380;2022-08-19T09:33:03;21.90;99.90
10788;DHT22;5446;50.826;4.380;2022-08-19T09:35:29;22.00;99.90
10788;DHT22;5446;50.826;4.380;2022-08-19T09:37:57;22.00;99.90
10788;DHT22;5446;50.826;4.380;2022-08-19T09:40:23;21.90;99.90
10788;DHT22;5446;50.826;4.380;2022-08-19T09:42:50;21.90;99.90
10788;DHT22;5446;50.826;4.380;2022-08-19T09:45:19;22.00;99.90
10788;DHT22;5446;50.826;4.380;2022-08-19T09:47:48;22.00;99.90
10788;DHT22;5446;50.826;4.380;2022-08-19T09:50:14;22.10;99.90
10788;DHT22;5446;50.826;4.380;2022-08-19T09:52:40;22.30;99.90
10788;DHT22;5446;50.826;4.380;2022-08-19T09:55:09;22.30;99.90
10788;DHT22;5446;50.826;4.380;2022-08-19T09:57:35;22.30;99.90
10788;DHT22;5446;50.826;4.380;2022-08-19T10:00:03;22.30;99.90
10788;DHT22;5446;50.826;4.380;2022-08-19T10:02:29;22.30;99.90
10788;DHT22;5446;50.826;4.380;2022-08-19T10:04:55;22.40;99.90
10788;DHT22;5446;50.826;4.380;2022-08-19T10:07:39;22.30;99.90
10788;DHT22;5446;50.826;4.380;2022-08-19T10:10:05;22.30;99.90
10788;DHT22;5446;50.826;4.380;2022-08-19T10:12:32;22.40;99.90
10788;DHT22;5446;50.826;4.380;2022-08-19T10:14:59;22.60;99.90
10788;DHT22;5446;50.826;4.380;2022-08-19T10:17:25;22.60;99.90
10788;DHT22;5446;50.826;4.380;2022-08-19T10:19:52;22.70;99.90
10788;DHT22;5446;50.826;4.380;2022-08-19T10:22:18;22.80;99.90
10788;DHT22;5446;50.826;4.380;2022-08-19T10:24:46;22.90;99.90
10788;DHT22;5446;50.826;4.380;2022-08-19T10:27:12;23.00;99.90
10788;DHT22;5446;50.826;4.380;2022-08-19T10:29:39;23.00;99.90
10788;DHT22;5446;50.826;4.380;2022-08-19T10:32:08;22.70;99.90
10788;DHT22;5446;50.826;4.380;2022-08-19T10:34:36;22.50;99.90
10788;DHT22;5446;50.826;4.380;2022-08-19T10:37:03;22.60;99.90
10788;DHT22;5446;50.826;4.380;2022-08-19T10:39:32;22.50;99.90
10788;DHT22;5446;50.826;4.380;2022-08-19T10:41:58;22.50;99.90
10788;DHT22;5446;50.826;4.380;2022-08-19T10:44:24;22.50;99.90
10788;DHT22;5446;50.826;4.380;2022-08-19T10:46:51;22.60;99.90
10788;DHT22;5446;50.826;4.380;2022-08-19T10:49:17;22.60;99.90
10788;DHT22;5446;50.826;4.380;2022-08-19T10:51:44;22.70;99.90
10788;DHT22;5446;50.826;4.380;2022-08-19T10:54:29;22.70;99.90
10788;DHT22;5446;50.826;4.380;2022-08-19T10:57:14;22.70;99.90
10788;DHT22;5446;50.826;4.380;2022-08-19T10:59:40;22.70;99.90
10788;DHT22;5446;50.826;4.380;2022-08-19T11:02:09;22.70;99.90
10788;DHT22;5446;50.826;4.380;2022-08-19T11:04:39;22.60;99.90
10788;DHT22;5446;50.826;4.380;2022-08-19T11:07:06;22.40;99.90
10788;DHT22;5446;50.826;4.380;2022-08-19T11:09:38;22.40;99.90
10788;DHT22;5446;50.826;4.380;2022-08-19T11:12:05;22.40;99.90
10788;DHT22;5446;50.826;4.380;2022-08-19T11:14:31;22.60;99.90
10788;DHT22;5446;50.826;4.380;2022-08-19T11:16:58;22.50;99.90
10788;DHT22;5446;50.826;4.380;2022-08-19T11:19:24;22.30;99.90
10788;DHT22;5446;50.826;4.380;2022-08-19T11:21:51;22.40;99.90
10788;DHT22;5446;50.826;4.380;2022-08-19T11:24:24;22.40;99.90
10788;DHT22;5446;50.826;4.380;2022-08-19T11:26:53;22.30;99.90
10788;DHT22;5446;50.826;4.380;2022-08-19T11:29:24;22.40;99.90
10788;DHT22;5446;50.826;4.380;2022-08-19T11:31:51;22.30;99.90
10788;DHT22;5446;50.826;4.380;2022-08-19T11:34:22;22.30;99.90
10788;DHT22;5446;50.826;4.380;2022-08-19T11:36:49;22.40;99.90
10788;DHT22;5446;50.826;4.380;2022-08-19T11:39:19;22.30;99.90
10788;DHT22;5446;50.826;4.380;2022-08-19T11:41:45;22.40;99.90
10788;DHT22;5446;50.826;4.380;2022-08-19T11:44:11;22.40;99.90
10788;DHT22;5446;50.826;4.380;2022-08-19T11:46:39;22.50;99.90
10788;DHT22;5446;50.826;4.380;2022-08-19T11:49:06;22.50;99.90
10788;DHT22;5446;50.826;4.380;2022-08-19T11:51:33;22.60;99.90
10788;DHT22;5446;50.826;4.380;2022-08-19T11:53:59;22.50;99.90
10788;DHT22;5446;50.826;4.380;2022-08-19T11:56:26;22.60;99.90
10788;DHT22;5446;50.826;4.380;2022-08-19T11:58:53;22.80;99.90
10788;DHT22;5446;50.826;4.380;2022-08-19T12:01:22;23.10;99.90
10788;DHT22;5446;50.826;4.380;2022-08-19T12:03:50;23.30;99.90
10788;DHT22;5446;50.826;4.380;2022-08-19T12:06:19;23.70;99.90
10788;DHT22;5446;50.826;4.380;2022-08-19T12:08:45;24.10;99.90
10788;DHT22;5446;50.826;4.380;2022-08-19T12:11:13;24.30;99.90
10788;DHT22;5446;50.826;4.380;2022-08-19T12:13:40;24.30;99.90
10788;DHT22;5446;50.826;4.380;2022-08-19T12:16:17;24.20;99.90
10788;DHT22;5446;50.826;4.380;2022-08-19T12:18:43;24.20;99.90
10788;DHT22;5446;50.826;4.380;2022-08-19T12:21:13;24.30;99.90
10788;DHT22;5446;50.826;4.380;2022-08-19T12:23:43;24.30;99.90
10788;DHT22;5446;50.826;4.380;2022-08-19T12:26:11;24.30;99.90
10788;DHT22;5446;50.826;4.380;2022-08-19T12:28:37;24.50;99.90
10788;DHT22;5446;50.826;4.380;2022-08-19T12:31:04;24.40;99.90
10788;DHT22;5446;50.826;4.380;2022-08-19T12:33:30;24.60;99.90
10788;DHT22;5446;50.826;4.380;2022-08-19T12:36:04;24.60;99.90
10788;DHT22;5446;50.826;4.380;2022-08-19T12:38:30;24.50;99.90
10788;DHT22;5446;50.826;4.380;2022-08-19T12:40:58;24.40;99.90
10788;DHT22;5446;50.826;4.380;2022-08-19T12:43:23;24.40;99.90
10788;DHT22;5446;50.826;4.380;2022-08-19T12:45:49;24.50;99.90
10788;DHT22;5446;50.826;4.380;2022-08-19T12:48:16;24.60;99.90
10788;DHT22;5446;50.826;4.380;2022-08-19T12:50:43;24.70;99.90
10788;DHT22;5446;50.826;4.380;2022-08-19T12:53:11;24.60;99.90
10788;DHT22;5446;50.826;4.380;2022-08-19T12:55:37;24.80;99.90
10788;DHT22;5446;50.826;4.380;2022-08-19T12:58:02;24.90;99.90
10788;DHT22;5446;50.826;4.380;2022-08-19T13:00:29;25.00;99.90
10788;DHT22;5446;50.826;4.380;2022-08-19T13:02:56;25.00;99.90
10788;DHT22;5446;50.826;4.380;2022-08-19T13:05:25;25.00;99.90
10788;DHT22;5446;50.826;4.380;2022-08-19T13:07:53;25.00;99.90
10788;DHT22;5446;50.826;4.380;2022-08-19T13:10:22;24.90;99.90
10788;DHT22;5446;50.826;4.380;2022-08-19T13:12:50;24.80;99.90
10788;DHT22;5446;50.826;4.380;2022-08-19T13:15:17;24.90;99.90
10788;DHT22;5446;50.826;4.380;2022-08-19T13:17:47;25.00;99.90
10788;DHT22;5446;50.826;4.380;2022-08-19T13:20:15;24.90;99.90
10788;DHT22;5446;50.826;4.380;2022-08-19T13:22:41;24.90;99.90
10788;DHT22;5446;50.826;4.380;2022-08-19T13:25:08;24.80;99.90
10788;DHT22;5446;50.826;4.380;2022-08-19T13:27:35;24.80;99.90
10788;DHT22;5446;50.826;4.380;2022-08-19T13:30:03;24.80;99.90
10788;DHT22;5446;50.826;4.380;2022-08-19T13:32:47;24.90;99.90
10788;DHT22;5446;50.826;4.380;2022-08-19T13:35:31;24.80;99.90
10788;DHT22;5446;50.826;4.380;2022-08-19T13:37:57;25.00;99.90
10788;DHT22;5446;50.826;4.380;2022-08-19T13:40:23;24.90;99.90
10788;DHT22;5446;50.826;4.380;2022-08-19T13:42:53;25.00;99.90
10788;DHT22;5446;50.826;4.380;2022-08-19T13:45:22;25.00;99.90
10788;DHT22;5446;50.826;4.380;2022-08-19T13:47:51;25.00;99.90
10788;DHT22;5446;50.826;4.380;2022-08-19T13:50:20;25.20;99.90
10788;DHT22;5446;50.826;4.380;2022-08-19T13:52:48;25.30;99.90
10788;DHT22;5446;50.826;4.380;2022-08-19T13:55:15;25.20;99.90
10788;DHT22;5446;50.826;4.380;2022-08-19T13:57:41;25.10;99.90
10788;DHT22;5446;50.826;4.380;2022-08-19T14:00:14;25.10;99.90
10788;DHT22;5446;50.826;4.380;2022-08-19T14:02:41;25.10;99.90
10788;DHT22;5446;50.826;4.380;2022-08-19T14:05:09;25.00;99.90
10788;DHT22;5446;50.826;4.380;2022-08-19T14:07:35;24.80;99.90
10788;DHT22;5446;50.826;4.380;2022-08-19T14:10:03;24.90;99.90
10788;DHT22;5446;50.826;4.380;2022-08-19T14:12:29;24.50;99.90
10788;DHT22;5446;50.826;4.380;2022-08-19T14:14:57;24.20;99.90
10788;DHT22;5446;50.826;4.380;2022-08-19T14:17:23;23.90;99.90
10788;DHT22;5446;50.826;4.380;2022-08-19T14:19:57;23.40;99.90
10788;DHT22;5446;50.826;4.380;2022-08-19T14:22:23;23.30;99.90
10788;DHT22;5446;50.826;4.380;2022-08-19T14:24:48;23.20;99.90
10788;DHT22;5446;50.826;4.380;2022-08-19T14:27:15;23.40;99.90
10788;DHT22;5446;50.826;4.380;2022-08-19T14:29:41;23.50;99.90
10788;DHT22;5446;50.826;4.380;2022-08-19T14:32:07;23.70;99.90
10788;DHT22;5446;50.826;4.380;2022-08-19T14:34:33;23.70;99.90
10788;DHT22;5446;50.826;4.380;2022-08-19T14:36:59;23.60;99.90
10788;DHT22;5446;50.826;4.380;2022-08-19T14:39:25;23.60;99.90
10788;DHT22;5446;50.826;4.380;2022-08-19T14:41:51;23.50;99.90
10788;DHT22;5446;50.826;4.380;2022-08-19T14:44:16;23.20;99.90
10788;DHT22;5446;50.826;4.380;2022-08-19T14:46:42;23.10;99.90
10788;DHT22;5446;50.826;4.380;2022-08-19T14:49:10;23.00;99.90
10788;DHT22;5446;50.826;4.380;2022-08-19T14:51:36;22.80;99.90
10788;DHT22;5446;50.826;4.380;2022-08-19T14:54:01;22.70;99.90
10788;DHT22;5446;50.826;4.380;2022-08-19T14:56:29;22.70;99.90
10788;DHT22;5446;50.826;4.380;2022-08-19T14:58:56;23.00;99.90
10788;DHT22;5446;50.826;4.380;2022-08-19T15:01:25;23.50;99.90
10788;DHT22;5446;50.826;4.380;2022-08-19T15:03:51;24.00;99.90
10788;DHT22;5446;50.826;4.380;2022-08-19T15:06:21;24.40;99.90
10788;DHT22;5446;50.826;4.380;2022-08-19T15:08:48;24.50;99.90
10788;DHT22;5446;50.826;4.380;2022-08-19T15:11:17;24.60;99.90
10788;DHT22;5446;50.826;4.380;2022-08-19T15:13:45;24.50;99.90
10788;DHT22;5446;50.826;4.380;2022-08-19T15:16:12;24.30;99.90
10788;DHT22;5446;50.826;4.380;2022-08-19T15:18:40;24.20;99.90
10788;DHT22;5446;50.826;4.380;2022-08-19T15:21:14;24.20;99.90
10788;DHT22;5446;50.826;4.380;2022-08-19T15:23:43;24.20;99.90
10788;DHT22;5446;50.826;4.380;2022-08-19T15:26:10;24.20;99.90
10788;DHT22;5446;50.826;4.380;2022-08-19T15:28:36;24.10;99.90
10788;DHT22;5446;50.826;4.380;2022-08-19T15:31:02;24.00;99.90
10788;DHT22;5446;50.826;4.380;2022-08-19T15:33:34;24.00;99.90
10788;DHT22;5446;50.826;4.380;2022-08-19T15:36:04;23.90;99.90
10788;DHT22;5446;50.826;4.380;2022-08-19T15:38:32;23.90;99.90
10788;DHT22;5446;50.826;4.380;2022-08-19T15:41:03;24.10;99.90
10788;DHT22;5446;50.826;4.380;2022-08-19T15:43:49;24.20;99.90
10788;DHT22;5446;50.826;4.380;2022-08-19T15:46:20;24.10;99.90
10788;DHT22;5446;50.826;4.380;2022-08-19T15:48:47;24.00;99.90
10788;DHT22;5446;50.826;4.380;2022-08-19T15:51:13;24.00;99.90
10788;DHT22;5446;50.826;4.380;2022-08-19T15:53:39;24.00;99.90
10788;DHT22;5446;50.826;4.380;2022-08-19T15:56:06;23.80;99.90
10788;DHT22;5446;50.826;4.380;2022-08-19T15:58:32;23.80;99.90